Time;durP1;ratioP1;P1;durP2;ratioP2;P2;SDS_P1;SDS_P2;PMS_P1;PMS_P2;Temp;Humidity;BMP_temperature;BMP_pressure;BME280_temperature;BME280_humidity;BME280_pressure;Samples;Min_cycle;Max_cycle;Signal;HPM_P1;HPM_P2
2023/04/01 00:01:46;;;;;;;;;;;10.10;99.90;;;;;;5090485;28;1914;-71
2023/04/01 00:04:12;;;;;;;;;;;10.10;99.90;;;;;;5104247;28;1258;-71
2023/04/01 00:06:38;;;;;;;;;;;10.10;99.90;;;;;;5114353;27;1306;-71
2023/04/01 00:09:03;;;;;;;;;;;10.10;99.90;;;;;;5107836;28;1167;-71
2023/04/01 00:11:29;;;;;;;;;;;10.20;99.90;;;;;;5107898;28;1348;-71
2023/04/01 00:13:55;;;;;;;;;;;10.10;99.90;;;;;;5107367;28;1180;-71
2023/04/01 00:16:21;;;;;;;;;;;10.10;99.90;;;;;;5123393;28;1124;-71
2023/04/01 00:18:47;;;;;;;;;;;10.10;99.90;;;;;;5089439;28;1174;-71
2023/04/01 00:21:13;;;;;;;;;;;10.20;99.90;;;;;;5089698;28;1942;-71
2023/04/01 00:23:38;;;;;;;;;;;10.20;99.90;;;;;;5107104;28;1134;-71
2023/04/01 00:26:05;;;;;;;;;;;10.20;99.90;;;;;;5110133;28;1308;-71
2023/04/01 00:28:31;;;;;;;;;;;10.20;99.90;;;;;;5126912;28;1155;-71
2023/04/01 00:30:56;;;;;;;;;;;10.20;99.90;;;;;;5110415;28;1119;-71
2023/04/01 00:33:22;;;;;;;;;;;10.20;99.90;;;;;;5093064;28;1085;-72
2023/04/01 00:35:48;;;;;;;;;;;10.20;99.90;;;;;;5092936;28;1109;-71
2023/04/01 00:38:14;;;;;;;;;;;10.20;99.90;;;;;;5075804;28;1109;-71
2023/04/01 00:40:41;;;;;;;;;;;10.20;99.90;;;;;;5092440;28;1285;-71
2023/04/01 00:43:10;;;;;;;;;;;11.00;99.90;;;;;;5110556;28;1917;-71
2023/04/01 00:45:38;;;;;;;;;;;10.20;99.90;;;;;;5092775;28;1097;-72
2023/04/01 00:48:07;;;;;;;;;;;10.20;99.90;;;;;;5092837;28;1117;-72
2023/04/01 00:50:34;;;;;;;;;;;10.30;99.90;;;;;;5108241;28;1383;-71
2023/04/01 00:53:00;;;;;;;;;;;10.30;99.90;;;;;;5075773;28;1117;-71
2023/04/01 00:55:27;;;;;;;;;;;10.30;99.90;;;;;;5092650;28;1186;-71
2023/04/01 00:57:56;;;;;;;;;;;10.30;99.90;;;;;;5109838;28;1124;-71
2023/04/01 01:00:21;;;;;;;;;;;10.30;99.90;;;;;;5110898;28;1105;-71
2023/04/01 01:02:49;;;;;;;;;;;10.30;99.90;;;;;;5053511;28;1112710;-71
2023/04/01 01:05:15;;;;;;;;;;;10.30;99.90;;;;;;5111206;28;1342;-71
2023/04/01 01:08:05;;;;;;;;;;;10.30;99.90;;;;;;5077043;28;1099;-71
2023/04/01 01:10:32;;;;;;;;;;;10.30;99.90;;;;;;5093871;28;1166;-71
2023/04/01 01:13:01;;;;;;;;;;;10.20;99.90;;;;;;5095290;28;1282;-71
2023/04/01 01:15:32;;;;;;;;;;;10.20;99.90;;;;;;5136787;27;1210;-71
2023/04/01 01:18:01;;;;;;;;;;;10.30;99.90;;;;;;5113290;27;1246;-71
2023/04/01 01:20:30;;;;;;;;;;;10.30;99.90;;;;;;5083735;28;1129;-71
2023/04/01 01:23:20;;;;;;;;;;;10.30;99.90;;;;;;5113675;27;1914;-71
2023/04/01 01:26:01;;;;;;;;;;;10.30;99.90;;;;;;5109991;27;997;-71
2023/04/01 01:28:27;;;;;;;;;;;10.30;99.90;;;;;;5081230;28;1224;-71
2023/04/01 01:31:03;;;;;;;;;;;10.30;99.90;;;;;;5099885;28;1259;-71
2023/04/01 01:33:35;;;;;;;;;;;10.30;99.90;;;;;;5095775;28;1259;-71
2023/04/01 01:36:04;;;;;;;;;;;10.30;99.90;;;;;;5102359;28;1227;-71
2023/04/01 01:38:33;;;;;;;;;;;10.30;99.90;;;;;;5110601;28;1199;-72
2023/04/01 01:41:02;;;;;;;;;;;10.30;99.90;;;;;;5076027;28;1745;-71
2023/04/01 01:43:30;;;;;;;;;;;10.30;99.90;;;;;;5091720;28;1929;-71
2023/04/01 01:45:57;;;;;;;;;;;10.30;99.90;;;;;;5076122;28;1093;-71
2023/04/01 01:48:24;;;;;;;;;;;10.30;99.90;;;;;;5110926;28;1140;-71
2023/04/01 01:50:50;;;;;;;;;;;10.30;99.90;;;;;;5075383;28;1636;-71
2023/04/01 01:53:17;;;;;;;;;;;10.30;99.90;;;;;;5092621;28;1112;-71
2023/04/01 01:55:44;;;;;;;;;;;10.30;99.90;;;;;;5075507;28;1115;-71
2023/04/01 01:58:19;;;;;;;;;;;10.30;99.90;;;;;;5092478;28;1337;-71
2023/04/01 02:00:48;;;;;;;;;;;10.30;99.90;;;;;;5074500;28;1118;-71
2023/04/01 02:03:14;;;;;;;;;;;10.30;99.90;;;;;;5092143;28;1976;-71
2023/04/01 02:05:40;;;;;;;;;;;10.30;99.90;;;;;;5110401;28;1358;-71
2023/04/01 02:08:12;;;;;;;;;;;10.30;99.90;;;;;;5091351;28;1135;-71
2023/04/01 02:10:40;;;;;;;;;;;10.30;99.90;;;;;;5092123;28;1160;-71
2023/04/01 02:13:10;;;;;;;;;;;10.30;99.90;;;;;;5092063;28;1342;-71
2023/04/01 02:15:40;;;;;;;;;;;10.20;99.90;;;;;;5092091;28;1112;-71
2023/04/01 02:18:07;;;;;;;;;;;10.20;99.90;;;;;;5067849;28;1184;-71
2023/04/01 02:20:34;;;;;;;;;;;10.20;99.90;;;;;;5110261;28;1170;-71
2023/04/01 02:23:00;;;;;;;;;;;10.20;99.90;;;;;;5074524;28;1914;-71
2023/04/01 02:25:28;;;;;;;;;;;10.20;99.90;;;;;;5132538;27;1297;-71
2023/04/01 02:27:55;;;;;;;;;;;10.20;99.90;;;;;;5109628;28;1265;-71
2023/04/01 02:30:22;;;;;;;;;;;10.20;99.90;;;;;;5099471;28;1195;-71
2023/04/01 02:32:48;;;;;;;;;;;10.20;99.90;;;;;;5081620;28;1222;-71
2023/04/01 02:35:16;;;;;;;;;;;10.20;99.90;;;;;;5098405;27;1290;-71
2023/04/01 02:37:42;;;;;;;;;;;10.20;99.90;;;;;;5133413;27;1238;-71
2023/04/01 02:40:09;;;;;;;;;;;10.20;99.90;;;;;;5112113;27;1222;-71
2023/04/01 02:42:35;;;;;;;;;;;10.10;99.90;;;;;;5090925;28;1930;-71
2023/04/01 02:45:01;;;;;;;;;;;10.20;99.90;;;;;;5109752;28;1627;-71
2023/04/01 02:47:26;;;;;;;;;;;10.10;99.90;;;;;;5074421;28;1056;-71
2023/04/01 02:49:57;;;;;;;;;;;10.10;99.90;;;;;;5109193;28;1285;-71
2023/04/01 02:52:24;;;;;;;;;;;10.10;99.90;;;;;;5090877;28;1177;-71
2023/04/01 02:54:50;;;;;;;;;;;10.10;99.90;;;;;;5074246;28;1139;-71
2023/04/01 02:57:16;;;;;;;;;;;10.10;99.90;;;;;;5109489;28;1088;-71
2023/04/01 02:59:41;;;;;;;;;;;10.10;99.90;;;;;;5091393;28;1117;-71
2023/04/01 03:02:07;;;;;;;;;;;10.10;99.90;;;;;;5094604;28;2001;-71
2023/04/01 03:04:33;;;;;;;;;;;10.10;99.90;;;;;;5108716;28;1175;-71
2023/04/01 03:06:59;;;;;;;;;;;10.20;99.90;;;;;;5109376;28;1600;-71
2023/04/01 03:09:24;;;;;;;;;;;10.10;99.90;;;;;;5074650;28;1172;-72
2023/04/01 03:11:50;;;;;;;;;;;10.20;99.90;;;;;;5083975;28;1248;-71
2023/04/01 03:14:16;;;;;;;;;;;10.20;99.90;;;;;;5109645;28;1179;-71
2023/04/01 03:16:42;;;;;;;;;;;10.20;99.90;;;;;;5109849;28;1101;-71
2023/04/01 03:19:07;;;;;;;;;;;10.20;99.90;;;;;;5092748;28;1121;-71
2023/04/01 03:21:33;;;;;;;;;;;10.20;99.90;;;;;;5125375;27;1988;-71
2023/04/01 03:24:00;;;;;;;;;;;10.20;99.90;;;;;;5091732;28;1040;-71
2023/04/01 03:26:27;;;;;;;;;;;10.20;99.90;;;;;;5073436;28;1189;-71
2023/04/01 03:28:53;;;;;;;;;;;10.20;99.90;;;;;;5084297;28;1160;-71
2023/04/01 03:31:19;;;;;;;;;;;10.20;99.90;;;;;;5094534;28;1143;-71
2023/04/01 03:33:51;;;;;;;;;;;10.20;99.90;;;;;;5127449;28;1684;-71
2023/04/01 03:36:16;;;;;;;;;;;10.20;99.90;;;;;;5118016;28;1035;-71
2023/04/01 03:38:43;;;;;;;;;;;10.20;99.90;;;;;;5109362;28;1170;-71
2023/04/01 03:41:12;;;;;;;;;;;10.20;99.90;;;;;;5073712;28;1101;-71
2023/04/01 03:43:38;;;;;;;;;;;10.20;99.90;;;;;;5090998;28;1910;-71
2023/04/01 03:46:04;;;;;;;;;;;10.20;99.90;;;;;;5095570;28;1120;-71
2023/04/01 03:48:30;;;;;;;;;;;10.20;99.90;;;;;;5111521;28;1193;-71
2023/04/01 03:50:56;;;;;;;;;;;10.20;99.90;;;;;;5091178;28;1104;-71
2023/04/01 03:53:23;;;;;;;;;;;10.20;99.90;;;;;;5073591;28;1117;-71
2023/04/01 03:55:51;;;;;;;;;;;10.20;99.90;;;;;;5090293;28;1158;-71
2023/04/01 03:58:17;;;;;;;;;;;10.20;99.90;;;;;;5074221;28;1160;-71
2023/04/01 04:00:42;;;;;;;;;;;10.20;99.90;;;;;;5092561;28;1211;-71
2023/04/01 04:03:09;;;;;;;;;;;10.20;99.90;;;;;;5080355;27;1937;-71
2023/04/01 04:05:35;;;;;;;;;;;10.10;99.90;;;;;;5111285;28;1504;-71
2023/04/01 04:08:01;;;;;;;;;;;10.20;99.90;;;;;;5094586;28;1089;-71
2023/04/01 04:10:28;;;;;;;;;;;10.20;99.90;;;;;;5113192;28;1084;-71
2023/04/01 04:12:54;;;;;;;;;;;10.10;99.90;;;;;;5085200;28;1363;-71
2023/04/01 04:15:22;;;;;;;;;;;10.20;99.90;;;;;;5077155;28;1159;-71
2023/04/01 04:17:48;;;;;;;;;;;10.20;99.90;;;;;;5113067;28;1175;-71
2023/04/01 04:20:14;;;;;;;;;;;10.20;99.90;;;;;;5094562;28;1161;-71
2023/04/01 04:22:40;;;;;;;;;;;10.20;99.90;;;;;;5112007;28;1999;-71
2023/04/01 04:25:08;;;;;;;;;;;10.20;99.90;;;;;;5077566;28;1074;-71
2023/04/01 04:27:35;;;;;;;;;;;10.10;99.90;;;;;;5111560;28;1401;-71
2023/04/01 04:30:07;;;;;;;;;;;10.10;99.90;;;;;;5079878;28;1113;-71
2023/04/01 04:32:33;;;;;;;;;;;10.20;99.90;;;;;;5130968;27;1185;-71
2023/04/01 04:34:59;;;;;;;;;;;10.20;99.90;;;;;;5094440;28;1219;-71
2023/04/01 04:37:25;;;;;;;;;;;10.20;99.90;;;;;;5111810;28;1236;-71
2023/04/01 04:39:52;;;;;;;;;;;10.20;99.90;;;;;;5093642;28;1129;-71
2023/04/01 04:42:18;;;;;;;;;;;10.20;99.90;;;;;;5093480;28;1996;-71
2023/04/01 04:44:44;;;;;;;;;;;10.10;99.90;;;;;;5076837;28;1637;-71
2023/04/01 04:47:10;;;;;;;;;;;10.10;99.90;;;;;;5110436;28;1040;-71
2023/04/01 04:49:36;;;;;;;;;;;10.10;99.90;;;;;;5112102;28;1120;-71
2023/04/01 04:52:06;;;;;;;;;;;10.10;99.90;;;;;;5094027;28;1161;-71
2023/04/01 04:54:32;;;;;;;;;;;10.20;99.90;;;;;;5093896;28;1203;-71
2023/04/01 04:57:00;;;;;;;;;;;10.20;99.90;;;;;;5080103;28;1181;-71
2023/04/01 04:59:28;;;;;;;;;;;10.10;99.90;;;;;;5093293;28;1325;-71
2023/04/01 05:02:02;;;;;;;;;;;10.20;99.90;;;;;;5076786;28;1927;-71
2023/04/01 05:04:28;;;;;;;;;;;10.20;99.90;;;;;;5093096;28;1128;-71
2023/04/01 05:06:54;;;;;;;;;;;10.20;99.90;;;;;;5097196;28;1333;-71
2023/04/01 05:09:20;;;;;;;;;;;10.20;99.90;;;;;;5094159;27;1047;-71
2023/04/01 05:11:45;;;;;;;;;;;10.20;99.90;;;;;;5100438;28;1290;-71
2023/04/01 05:14:12;;;;;;;;;;;10.20;99.90;;;;;;5101034;28;1226;-71
2023/04/01 05:16:38;;;;;;;;;;;10.20;99.90;;;;;;5102231;28;1244;-71
2023/04/01 05:19:03;;;;;;;;;;;10.20;99.90;;;;;;5084732;27;1262;-71
2023/04/01 05:21:29;;;;;;;;;;;10.20;99.90;;;;;;5100749;28;2028;-71
2023/04/01 05:23:56;;;;;;;;;;;10.20;99.90;;;;;;5100990;27;1231;-71
2023/04/01 05:26:23;;;;;;;;;;;10.20;99.90;;;;;;5134924;27;1309;-71
2023/04/01 05:28:49;;;;;;;;;;;10.20;99.90;;;;;;5101880;27;1203;-71
2023/04/01 05:31:15;;;;;;;;;;;10.30;99.90;;;;;;5134080;27;1238;-71
2023/04/01 05:33:43;;;;;;;;;;;10.30;99.90;;;;;;5135657;27;1170;-71
2023/04/01 05:36:11;;;;;;;;;;;10.30;99.90;;;;;;5108877;27;1176;-71
2023/04/01 05:38:37;;;;;;;;;;;10.30;99.90;;;;;;5097081;28;1212;-71
2023/04/01 05:41:05;;;;;;;;;;;10.40;99.90;;;;;;5134272;27;1514;-71
2023/04/01 05:43:36;;;;;;;;;;;10.40;99.90;;;;;;5101692;28;1992;-71
2023/04/01 05:46:12;;;;;;;;;;;10.40;99.90;;;;;;5098629;28;1302;-71
2023/04/01 05:48:48;;;;;;;;;;;10.40;99.90;;;;;;5099098;28;1660;-71
2023/04/01 05:51:16;;;;;;;;;;;10.40;99.90;;;;;;5100366;28;1379;-71
2023/04/01 05:53:42;;;;;;;;;;;10.50;99.90;;;;;;5083793;28;1087;-71
2023/04/01 05:56:09;;;;;;;;;;;10.50;99.90;;;;;;5102025;28;1021;-71
2023/04/01 05:58:39;;;;;;;;;;;10.50;99.90;;;;;;5081489;28;1248;-71
2023/04/01 06:01:07;;;;;;;;;;;10.50;99.90;;;;;;5099633;28;1211;-71
2023/04/01 06:03:33;;;;;;;;;;;10.60;99.90;;;;;;5112970;27;1961;-71
2023/04/01 06:06:00;;;;;;;;;;;10.60;99.90;;;;;;5092422;28;1300;-71
2023/04/01 06:08:27;;;;;;;;;;;10.60;99.90;;;;;;5100462;28;1171;-71
2023/04/01 06:10:54;;;;;;;;;;;10.60;99.90;;;;;;5092434;28;1048;-71
2023/04/01 06:13:28;;;;;;;;;;;10.70;99.90;;;;;;5094578;28;1299;-71
2023/04/01 06:16:08;;;;;;;;;;;10.70;99.90;;;;;;5092844;27;1081;-71
2023/04/01 06:18:33;;;;;;;;;;;10.80;99.90;;;;;;5141682;27;1119;-71
2023/04/01 06:21:00;;;;;;;;;;;10.80;99.90;;;;;;5100670;27;1198;-71
2023/04/01 06:23:41;;;;;;;;;;;10.90;99.90;;;;;;5116716;27;1913;-71
2023/04/01 06:26:17;;;;;;;;;;;10.90;99.90;;;;;;5099636;27;1277;-71
2023/04/01 06:28:43;;;;;;;;;;;10.90;99.90;;;;;;5074776;28;1105;-72
2023/04/01 06:31:20;;;;;;;;;;;10.90;99.90;;;;;;5074662;28;1204;-71
2023/04/01 06:33:55;;;;;;;;;;;10.90;99.90;;;;;;5074467;28;1161;-71
2023/04/01 06:36:21;;;;;;;;;;;10.90;99.90;;;;;;5074254;28;1077;-71
2023/04/01 06:38:48;;;;;;;;;;;10.90;99.90;;;;;;5091919;28;1117;-71
2023/04/01 06:41:27;;;;;;;;;;;10.90;99.90;;;;;;5092219;28;1088;-71
2023/04/01 06:43:58;;;;;;;;;;;11.00;99.90;;;;;;5090464;28;1287;-71
2023/04/01 06:46:59;;;;;;;;;;;10.90;99.90;;;;;;5109774;28;1131;-71
2023/04/01 06:49:44;;;;;;;;;;;10.90;99.90;;;;;;5109288;28;1081;-71
2023/04/01 06:52:36;;;;;;;;;;;11.00;99.90;;;;;;5109268;28;1134;-71
2023/04/01 06:55:35;;;;;;;;;;;11.00;99.90;;;;;;5091625;28;1110;-71
2023/04/01 06:58:13;;;;;;;;;;;11.10;99.90;;;;;;5109322;28;1088;-71
2023/04/01 07:00:40;;;;;;;;;;;11.20;99.90;;;;;;5109010;28;1169;-71
2023/04/01 07:03:08;;;;;;;;;;;11.20;99.90;;;;;;5074008;28;1918;-71
2023/04/01 07:05:35;;;;;;;;;;;11.30;99.90;;;;;;5110804;27;1275;-71
2023/04/01 07:08:03;;;;;;;;;;;11.40;99.90;;;;;;5131060;27;1218;-71
2023/04/01 07:10:42;;;;;;;;;;;11.40;99.90;;;;;;5083578;28;1240;-71
2023/04/01 07:13:47;;;;;;;;;;;11.50;99.90;;;;;;5108820;28;1415;-71
2023/04/01 07:16:16;;;;;;;;;;;11.60;99.90;;;;;;5104832;27;1323;-71
2023/04/01 07:18:52;;;;;;;;;;;11.60;99.90;;;;;;5084051;28;1137;-71
2023/04/01 07:21:23;;;;;;;;;;;11.60;99.90;;;;;;5074642;28;1163;-71
2023/04/01 07:23:51;;;;;;;;;;;11.60;99.90;;;;;;5090942;28;1206;-71
2023/04/01 07:26:31;;;;;;;;;;;11.60;99.90;;;;;;5090853;28;1293;-72
2023/04/01 07:29:12;;;;;;;;;;;11.60;99.90;;;;;;5091386;28;1112;-71
2023/04/01 07:31:44;;;;;;;;;;;11.60;99.90;;;;;;5090673;28;1159;-72
2023/04/01 07:34:24;;;;;;;;;;;11.70;99.90;;;;;;5075239;28;1102;-72
2023/04/01 07:36:51;;;;;;;;;;;11.70;99.90;;;;;;5077945;28;1040;-72
2023/04/01 07:39:30;;;;;;;;;;;11.90;99.90;;;;;;5094653;28;1288;-72
2023/04/01 07:42:19;;;;;;;;;;;12.00;99.90;;;;;;5095262;28;1992;-72
2023/04/01 07:44:54;;;;;;;;;;;12.10;99.90;;;;;;5094154;28;1584;-72
2023/04/01 07:47:25;;;;;;;;;;;12.10;99.90;;;;;;5078011;28;1128;-72
2023/04/01 07:50:03;;;;;;;;;;;12.20;99.90;;;;;;5078247;28;1100;-71
2023/04/01 07:52:44;;;;;;;;;;;12.30;99.90;;;;;;5094601;28;1107;-71
2023/04/01 07:55:23;;;;;;;;;;;12.30;99.90;;;;;;5093115;28;1117;-71
2023/04/01 07:57:55;;;;;;;;;;;12.30;99.90;;;;;;5095175;28;1085;-71
2023/04/01 08:00:24;;;;;;;;;;;12.20;99.90;;;;;;5094336;28;1137;-71
2023/04/01 08:03:05;;;;;;;;;;;12.30;99.90;;;;;;5077215;28;1997;-72
2023/04/01 08:05:51;;;;;;;;;;;12.30;99.90;;;;;;5078116;28;1256;-72
2023/04/01 08:08:23;;;;;;;;;;;12.40;99.90;;;;;;5093813;28;1112;-72
2023/04/01 08:11:08;;;;;;;;;;;12.50;99.90;;;;;;5112689;28;1085;-72
2023/04/01 08:14:02;;;;;;;;;;;12.70;99.90;;;;;;5085184;28;1086;-72
2023/04/01 08:16:53;;;;;;;;;;;12.90;99.90;;;;;;5113261;28;1104;-72
2023/04/01 08:19:26;;;;;;;;;;;13.00;99.90;;;;;;5093639;28;1432;-72
2023/04/01 08:21:57;;;;;;;;;;;13.20;99.90;;;;;;5076733;28;1967;-72
2023/04/01 08:24:35;;;;;;;;;;;13.40;99.90;;;;;;5077641;28;1089;-71
2023/04/01 08:27:05;;;;;;;;;;;13.50;99.90;;;;;;5077468;28;1327;-72
2023/04/01 08:29:37;;;;;;;;;;;13.60;99.90;;;;;;5109743;28;1369;-72
2023/04/01 08:32:06;;;;;;;;;;;13.60;99.90;;;;;;5112750;28;1148;-71
2023/04/01 08:34:35;;;;;;;;;;;13.60;99.90;;;;;;5137652;27;1141;-72
2023/04/01 08:37:09;;;;;;;;;;;13.50;99.90;;;;;;5076524;28;1155;-72
2023/04/01 08:39:52;;;;;;;;;;;13.50;99.90;;;;;;5111328;28;1167;-72
2023/04/01 08:42:35;;;;;;;;;;;13.50;99.90;;;;;;5093781;28;1905;-72
2023/04/01 08:45:14;;;;;;;;;;;13.50;99.90;;;;;;5077018;28;1719;-72
2023/04/01 08:47:40;;;;;;;;;;;13.60;99.90;;;;;;5100205;28;1133;-72
2023/04/01 08:50:24;;;;;;;;;;;13.60;99.90;;;;;;5093559;28;1112;-72
2023/04/01 08:53:13;;;;;;;;;;;13.30;99.90;;;;;;5093919;28;1104;-72
2023/04/01 08:56:05;;;;;;;;;;;13.00;99.90;;;;;;5110599;28;1173;-72
2023/04/01 08:58:50;;;;;;;;;;;12.70;99.90;;;;;;5093520;28;1167;-72
2023/04/01 09:01:40;;;;;;;;;;;12.40;99.90;;;;;;5094034;28;1109;-72
2023/04/01 09:04:22;;;;;;;;;;;12.30;99.90;;;;;;5077680;28;1142;-72
2023/04/01 09:06:55;;;;;;;;;;;12.10;99.90;;;;;;5116612;27;1361;-72
2023/04/01 09:09:22;;;;;;;;;;;11.90;99.90;;;;;;5093865;28;1136;-72
2023/04/01 09:12:15;;;;;;;;;;;11.70;99.90;;;;;;5076511;28;1294;-72
2023/04/01 09:14:49;;;;;;;;;;;11.70;99.90;;;;;;5092607;28;1673;-72
2023/04/01 09:17:19;;;;;;;;;;;11.60;99.90;;;;;;5076538;28;1081;-72
2023/04/01 09:19:54;;;;;;;;;;;11.60;99.90;;;;;;5076069;28;1049;-72
2023/04/01 09:22:19;;;;;;;;;;;11.50;99.90;;;;;;5115251;27;1907;-72
2023/04/01 09:24:56;;;;;;;;;;;11.40;99.90;;;;;;5095662;28;1145;-72
2023/04/01 09:27:30;;;;;;;;;;;11.30;99.90;;;;;;5076634;28;1364;-72
2023/04/01 09:30:10;;;;;;;;;;;11.20;99.90;;;;;;5076298;28;1141;-72
2023/04/01 09:32:54;;;;;;;;;;;11.10;99.90;;;;;;5110887;28;1108;-72
2023/04/01 09:35:28;;;;;;;;;;;11.00;99.90;;;;;;5074490;28;1281;-72
2023/04/01 09:37:59;;;;;;;;;;;10.90;99.90;;;;;;5075564;28;1176;-72
2023/04/01 09:40:45;;;;;;;;;;;10.90;99.90;;;;;;5103593;27;1159;-72
2023/04/01 09:43:30;;;;;;;;;;;10.90;99.90;;;;;;5125141;27;2226;-72
2023/04/01 09:45:58;;;;;;;;;;;11.00;99.90;;;;;;5075317;28;1101;-72
2023/04/01 09:48:27;;;;;;;;;;;11.10;99.90;;;;;;5095676;27;1014;-72
2023/04/01 09:51:00;;;;;;;;;;;11.20;99.90;;;;;;5110691;27;1171;-72
2023/04/01 09:53:36;;;;;;;;;;;11.20;99.90;;;;;;5126328;27;1104;-72
2023/04/01 09:56:18;;;;;;;;;;;11.20;99.90;;;;;;5101275;28;1325;-72
2023/04/01 09:59:02;;;;;;;;;;;11.20;99.90;;;;;;5113747;27;1065;-72
2023/04/01 10:02:06;;;;;;;;;;;11.10;99.90;;;;;;5110539;28;1993;-72
2023/04/01 10:04:33;;;;;;;;;;;11.10;99.90;;;;;;5092458;28;1140;-72
2023/04/01 10:07:12;;;;;;;;;;;11.20;99.90;;;;;;5096154;28;1647;-72
2023/04/01 10:09:59;;;;;;;;;;;11.20;99.90;;;;;;5075749;28;1045;-72
2023/04/01 10:12:26;;;;;;;;;;;11.20;99.90;;;;;;5097582;28;1342;-72
2023/04/01 10:14:51;;;;;;;;;;;11.30;99.90;;;;;;5074747;28;1152;-72
2023/04/01 10:17:21;;;;;;;;;;;11.30;99.90;;;;;;5100035;28;1205;-72
2023/04/01 10:19:54;;;;;;;;;;;11.30;99.90;;;;;;5074721;28;1164;-72
2023/04/01 10:22:43;;;;;;;;;;;11.30;99.90;;;;;;5108759;28;1913;-72
2023/04/01 10:25:15;;;;;;;;;;;11.30;99.90;;;;;;5080629;28;1184;-72
2023/04/01 10:27:59;;;;;;;;;;;11.30;99.90;;;;;;5074173;28;1293;-72
2023/04/01 10:31:07;;;;;;;;;;;11.30;99.90;;;;;;5094314;28;1149;-72
2023/04/01 10:33:55;;;;;;;;;;;11.30;99.90;;;;;;5077464;28;1240;-72
2023/04/01 10:36:35;;;;;;;;;;;11.30;99.90;;;;;;5109558;28;1302;-72
2023/04/01 10:39:01;;;;;;;;;;;11.30;99.90;;;;;;5132954;27;1222;-72
2023/04/01 10:41:28;;;;;;;;;;;11.30;99.90;;;;;;5132504;27;1481;-72
2023/04/01 10:44:31;;;;;;;;;;;11.30;99.90;;;;;;5083640;28;1616;-72
2023/04/01 10:47:02;;;;;;;;;;;11.40;99.90;;;;;;5091721;28;1139;-72
2023/04/01 10:49:35;;;;;;;;;;;11.50;99.90;;;;;;5091445;28;1096;-72
2023/04/01 10:52:12;;;;;;;;;;;11.50;99.90;;;;;;5093030;28;1145;-72
2023/04/01 10:55:23;;;;;;;;;;;11.60;99.90;;;;;;5109461;28;1144;-72
2023/04/01 10:58:17;;;;;;;;;;;11.60;99.90;;;;;;5109666;28;1096;-72
2023/04/01 11:01:22;;;;;;;;;;;11.70;99.90;;;;;;5091634;28;1522;-72
2023/04/01 11:04:19;;;;;;;;;;;11.70;99.90;;;;;;5121507;27;1449;-73
2023/04/01 11:07:09;;;;;;;;;;;11.60;99.90;;;;;;5089502;28;1614;-72
2023/04/01 11:09:56;;;;;;;;;;;11.60;99.90;;;;;;5087087;28;995;-72
2023/04/01 11:12:23;;;;;;;;;;;11.70;99.90;;;;;;5087647;28;1345;-72
2023/04/01 11:14:59;;;;;;;;;;;11.70;99.90;;;;;;5071244;28;981;-72
2023/04/01 11:17:31;;;;;;;;;;;11.80;99.90;;;;;;5070398;28;1179;-72
2023/04/01 11:20:13;;;;;;;;;;;12.00;99.90;;;;;;5087217;28;1246;-72
2023/04/01 11:22:49;;;;;;;;;;;12.10;99.90;;;;;;5088578;28;1910;-72
2023/04/01 11:25:25;;;;;;;;;;;12.20;99.90;;;;;;5119486;27;1353;-72
2023/04/01 11:28:10;;;;;;;;;;;12.30;99.90;;;;;;5096236;28;1539;-72
2023/04/01 11:30:43;;;;;;;;;;;12.40;99.90;;;;;;5107951;28;1072;-72
2023/04/01 11:33:09;;;;;;;;;;;12.50;99.90;;;;;;5108199;28;1061;-72
2023/04/01 11:35:55;;;;;;;;;;;12.60;99.90;;;;;;5093428;28;1103;-72
2023/04/01 11:38:22;;;;;;;;;;;12.70;99.90;;;;;;5070416;28;1163;-72
2023/04/01 11:41:22;;;;;;;;;;;12.90;99.90;;;;;;5089078;28;1131;-72
2023/04/01 11:44:19;;;;;;;;;;;13.00;99.90;;;;;;5087883;28;1623;-72
2023/04/01 11:47:12;;;;;;;;;;;13.00;99.90;;;;;;5102983;28;1605;-72
2023/04/01 11:49:44;;;;;;;;;;;13.00;99.90;;;;;;5092407;28;1168;-72
2023/04/01 11:52:35;;;;;;;;;;;13.10;99.90;;;;;;5086733;28;1212;-73
2023/04/01 11:55:19;;;;;;;;;;;13.20;99.90;;;;;;5090964;28;1182;-72
2023/04/01 11:58:05;;;;;;;;;;;13.10;99.90;;;;;;5121249;27;1238;-72
2023/04/01 12:00:33;;;;;;;;;;;12.90;99.90;;;;;;5108255;28;1152;-72
2023/04/01 12:03:08;;;;;;;;;;;12.60;99.90;;;;;;5086568;28;1977;-72
2023/04/01 12:05:54;;;;;;;;;;;12.40;99.90;;;;;;5096763;28;1294;-72
2023/04/01 12:08:31;;;;;;;;;;;12.20;99.90;;;;;;5097124;28;1239;-72
2023/04/01 12:11:01;;;;;;;;;;;12.20;99.90;;;;;;5092841;28;1191;-72
2023/04/01 12:13:32;;;;;;;;;;;12.30;99.90;;;;;;5092210;28;1297;-72
2023/04/01 12:16:19;;;;;;;;;;;12.20;99.90;;;;;;5091198;28;1075;-72
2023/04/01 12:18:45;;;;;;;;;;;12.20;99.90;;;;;;5087852;28;1096;-73
2023/04/01 12:21:17;;;;;;;;;;;12.10;99.90;;;;;;5121786;27;1150;-73
2023/04/01 12:23:51;;;;;;;;;;;12.00;99.90;;;;;;5092482;28;1972;-73
2023/04/01 12:26:30;;;;;;;;;;;11.90;99.90;;;;;;5090654;28;1250;-73
2023/04/01 12:29:02;;;;;;;;;;;11.80;99.90;;;;;;5076938;28;1154;-74
2023/04/01 12:31:36;;;;;;;;;;;11.70;99.90;;;;;;5074389;28;1207;-73
2023/04/01 12:34:12;;;;;;;;;;;11.70;99.90;;;;;;5090307;28;1112;-73
2023/04/01 12:36:38;;;;;;;;;;;11.60;99.90;;;;;;5094176;28;1158;-73
2023/04/01 12:39:04;;;;;;;;;;;11.60;99.90;;;;;;5101846;28;1334;-73
2023/04/01 12:41:38;;;;;;;;;;;11.70;99.90;;;;;;5097337;28;1211;-73
2023/04/01 12:44:17;;;;;;;;;;;11.70;99.90;;;;;;5092079;28;1511;-73
2023/04/01 12:46:56;;;;;;;;;;;11.70;99.90;;;;;;5091683;28;1196;-73
2023/04/01 12:49:42;;;;;;;;;;;11.70;99.90;;;;;;5089696;28;1128;-73
2023/04/01 12:52:10;;;;;;;;;;;11.60;99.90;;;;;;5093787;28;1190;-73
2023/04/01 12:54:35;;;;;;;;;;;11.50;99.90;;;;;;5100388;28;1218;-74
2023/04/01 12:57:08;;;;;;;;;;;11.50;99.90;;;;;;5100876;28;1131;-73
2023/04/01 12:59:34;;;;;;;;;;;11.50;99.90;;;;;;5100864;28;1238;-73
2023/04/01 13:02:01;;;;;;;;;;;11.40;99.90;;;;;;5098956;28;1967;-73
2023/04/01 13:04:45;;;;;;;;;;;11.40;99.90;;;;;;5105135;28;3661;-74
2023/04/01 13:07:16;;;;;;;;;;;11.40;99.90;;;;;;5124723;27;1627;-73
2023/04/01 13:09:47;;;;;;;;;;;11.40;99.90;;;;;;5092309;28;3433;-73
2023/04/01 13:12:21;;;;;;;;;;;11.40;99.90;;;;;;5111079;28;1349;-73
2023/04/01 13:15:02;;;;;;;;;;;11.40;99.90;;;;;;5111878;28;1124;-74
2023/04/01 13:17:32;;;;;;;;;;;11.40;99.90;;;;;;5131174;27;1235;-73
2023/04/01 13:20:02;;;;;;;;;;;11.40;99.90;;;;;;5098275;28;1223;-73
2023/04/01 13:22:27;;;;;;;;;;;11.40;99.90;;;;;;5111748;27;3597;-73
2023/04/01 13:25:12;;;;;;;;;;;11.50;99.90;;;;;;5110794;28;1298;-73
2023/04/01 13:27:40;;;;;;;;;;;11.60;99.90;;;;;;5111355;27;1274;-73
2023/04/01 13:30:15;;;;;;;;;;;11.70;99.90;;;;;;5110340;28;1218;-72
2023/04/01 13:32:50;;;;;;;;;;;11.80;99.90;;;;;;5110969;27;1093;-73
2023/04/01 13:35:21;;;;;;;;;;;11.90;99.90;;;;;;5094139;28;1162;-73
2023/04/01 13:37:56;;;;;;;;;;;11.90;99.90;;;;;;5102419;28;1004;-73
2023/04/01 13:40:28;;;;;;;;;;;11.90;99.90;;;;;;5106144;28;1136;-73
2023/04/01 13:43:03;;;;;;;;;;;11.90;99.90;;;;;;5111503;28;1977;-72
2023/04/01 13:45:38;;;;;;;;;;;11.90;99.90;;;;;;5110447;28;1076;-73
2023/04/01 13:48:11;;;;;;;;;;;11.90;99.90;;;;;;5110675;28;1069;-73
2023/04/01 13:50:46;;;;;;;;;;;11.90;99.90;;;;;;5111089;28;1112;-72
2023/04/01 13:53:21;;;;;;;;;;;11.90;99.90;;;;;;5092696;28;1129;-73
2023/04/01 13:55:53;;;;;;;;;;;11.80;99.90;;;;;;5109238;28;1136;-73
2023/04/01 13:58:34;;;;;;;;;;;11.70;99.90;;;;;;5106942;28;1111;-73
2023/04/01 14:01:07;;;;;;;;;;;11.50;99.90;;;;;;5093774;28;993;-73
2023/04/01 14:03:42;;;;;;;;;;;11.40;99.90;;;;;;5110735;28;1906;-72
2023/04/01 14:06:16;;;;;;;;;;;11.30;99.90;;;;;;5109646;28;1338;-72
2023/04/01 14:08:42;;;;;;;;;;;11.20;99.90;;;;;;5092641;28;1103;-73
2023/04/01 14:11:12;;;;;;;;;;;11.10;99.90;;;;;;5105041;27;1380;-73
2023/04/01 14:13:44;;;;;;;;;;;11.10;99.90;;;;;;5124838;27;1604;-72
2023/04/01 14:16:23;;;;;;;;;;;10.90;99.90;;;;;;5110680;28;1140;-73
2023/04/01 14:18:59;;;;;;;;;;;10.90;99.90;;;;;;5133926;27;1242;-72
2023/04/01 14:21:36;;;;;;;;;;;10.80;99.90;;;;;;5111939;27;1085;-73
2023/04/01 14:24:16;;;;;;;;;;;10.80;99.90;;;;;;5109757;27;1910;-73
2023/04/01 14:26:46;;;;;;;;;;;10.80;99.90;;;;;;5107869;28;1380;-73
2023/04/01 14:29:36;;;;;;;;;;;10.70;99.90;;;;;;5095114;28;1116;-73
2023/04/01 14:32:12;;;;;;;;;;;10.70;99.90;;;;;;5109587;28;1084;-73
2023/04/01 14:34:55;;;;;;;;;;;10.60;99.90;;;;;;5109645;28;1093;-72
2023/04/01 14:37:37;;;;;;;;;;;10.50;99.90;;;;;;5107870;28;1143;-72
2023/04/01 14:40:14;;;;;;;;;;;10.50;99.90;;;;;;5108775;28;1174;-72
2023/04/01 14:42:55;;;;;;;;;;;10.50;99.90;;;;;;5097847;28;1918;-72
2023/04/01 14:45:30;;;;;;;;;;;10.50;99.90;;;;;;5106406;28;1101;-72
2023/04/01 14:47:59;;;;;;;;;;;10.50;99.90;;;;;;5091259;28;1085;-72
2023/04/01 14:50:27;;;;;;;;;;;10.50;99.90;;;;;;5082057;28;1009;-73
2023/04/01 14:53:11;;;;;;;;;;;10.50;99.90;;;;;;5110333;28;1088;-73
2023/04/01 14:55:40;;;;;;;;;;;10.50;99.90;;;;;;5109189;28;1159;-73
2023/04/01 14:58:06;;;;;;;;;;;10.40;99.90;;;;;;5110001;28;1096;-73
2023/04/01 15:00:46;;;;;;;;;;;10.40;99.90;;;;;;5109500;28;1191;-73
2023/04/01 15:03:12;;;;;;;;;;;10.30;99.90;;;;;;5109976;27;1929;-73
2023/04/01 15:05:41;;;;;;;;;;;10.30;99.90;;;;;;5109293;28;1380;-73